LDRO weather

Otočac Airport
Otočac, Lika-Senj County, Croatia

Public forecast

Using degrees Celsius for public forecast. Weather courtesy of forecast.io.

METAR (pilot weather report)

Closest report is Rijeka Airport, 37.6 nm (69.7 km) NW. Retrieved 2019/05/21 08:30 UTC (0 seconds ago):

LDRI 210830Z 15007KT 110V180 9999 -RA SCT013 BKN025 15/13 Q1010

TAF (pilot weather forecast)

Closest forecast is Rijeka Airport, 37.6 nm (69.7 km) NW. Retrieved 2019/05/21 06:29 UTC (2 hours ago):

TAF LDRI 210525Z 2106/2206 14006KT 9999 BKN030 TX17/2113Z TN11/2204Z TEMPO 2106/2206 SHRA FEW020TCU BKN025